sensor_id;sensor_type;location;lat;lon;timestamp;P1;durP1;ratioP1;P2;durP2;ratioP2
70547;SDS011;58099;43.406;3.698;2023-09-08T08:43:07;9.33;;;4.33;;
70547;SDS011;58099;43.406;3.698;2023-09-08T08:45:33;8.95;;;4.30;;
70547;SDS011;58099;43.406;3.698;2023-09-08T08:48:00;7.73;;;4.13;;
70547;SDS011;58099;43.406;3.698;2023-09-08T08:50:28;8.50;;;4.22;;
70547;SDS011;58099;43.406;3.698;2023-09-08T08:52:55;10.55;;;5.07;;
70547;SDS011;58099;43.406;3.698;2023-09-08T08:55:21;8.55;;;4.40;;
70547;SDS011;58099;43.406;3.698;2023-09-08T08:57:49;8.07;;;4.10;;
70547;SDS011;58099;43.406;3.698;2023-09-08T09:00:15;12.82;;;4.63;;
70547;SDS011;58099;43.406;3.698;2023-09-08T09:02:43;7.57;;;4.38;;
70547;SDS011;58099;43.406;3.698;2023-09-08T09:05:13;12.10;;;4.47;;
70547;SDS011;58099;43.406;3.698;2023-09-08T09:07:39;7.65;;;4.18;;
70547;SDS011;58099;43.406;3.698;2023-09-08T09:10:08;8.50;;;3.83;;
70547;SDS011;58099;43.406;3.698;2023-09-08T09:12:38;9.23;;;4.38;;
70547;SDS011;58099;43.406;3.698;2023-09-08T09:15:04;8.75;;;4.70;;
70547;SDS011;58099;43.406;3.698;2023-09-08T09:17:34;7.78;;;3.95;;
70547;SDS011;58099;43.406;3.698;2023-09-08T09:22:40;7.23;;;3.50;;
70547;SDS011;58099;43.406;3.698;2023-09-08T09:25:06;10.05;;;4.25;;
70547;SDS011;58099;43.406;3.698;2023-09-08T09:27:32;8.95;;;3.95;;
70547;SDS011;58099;43.406;3.698;2023-09-08T09:30:02;9.60;;;4.60;;
70547;SDS011;58099;43.406;3.698;2023-09-08T09:32:29;10.45;;;3.90;;
70547;SDS011;58099;43.406;3.698;2023-09-08T09:34:56;8.93;;;4.32;;
70547;SDS011;58099;43.406;3.698;2023-09-08T09:37:23;9.68;;;4.20;;
70547;SDS011;58099;43.406;3.698;2023-09-08T09:39:49;10.18;;;4.88;;
70547;SDS011;58099;43.406;3.698;2023-09-08T09:42:16;11.57;;;4.95;;
70547;SDS011;58099;43.406;3.698;2023-09-08T09:44:42;15.50;;;6.03;;
70547;SDS011;58099;43.406;3.698;2023-09-08T09:47:08;13.35;;;5.45;;
70547;SDS011;58099;43.406;3.698;2023-09-08T09:49:44;13.70;;;5.22;;
70547;SDS011;58099;43.406;3.698;2023-09-08T09:52:11;8.57;;;4.68;;
70547;SDS011;58099;43.406;3.698;2023-09-08T09:54:39;8.73;;;4.40;;
70547;SDS011;58099;43.406;3.698;2023-09-08T09:57:10;10.90;;;4.80;;
70547;SDS011;58099;43.406;3.698;2023-09-08T09:59:40;14.25;;;5.07;;
70547;SDS011;58099;43.406;3.698;2023-09-08T10:02:07;8.45;;;4.35;;
70547;SDS011;58099;43.406;3.698;2023-09-08T10:04:37;8.73;;;4.97;;
70547;SDS011;58099;43.406;3.698;2023-09-08T10:07:05;9.17;;;4.83;;
70547;SDS011;58099;43.406;3.698;2023-09-08T10:09:31;7.70;;;4.85;;
70547;SDS011;58099;43.406;3.698;2023-09-08T10:11:58;8.35;;;5.28;;
70547;SDS011;58099;43.406;3.698;2023-09-08T10:14:28;7.63;;;4.55;;
70547;SDS011;58099;43.406;3.698;2023-09-08T10:16:56;6.87;;;4.77;;
70547;SDS011;58099;43.406;3.698;2023-09-08T10:19:25;8.13;;;5.07;;
70547;SDS011;58099;43.406;3.698;2023-09-08T10:21:51;7.15;;;4.60;;
70547;SDS011;58099;43.406;3.698;2023-09-08T10:24:24;8.13;;;4.80;;
70547;SDS011;58099;43.406;3.698;2023-09-08T10:27:12;8.43;;;4.43;;
70547;SDS011;58099;43.406;3.698;2023-09-08T10:29:38;11.80;;;4.90;;
70547;SDS011;58099;43.406;3.698;2023-09-08T10:32:05;7.97;;;5.93;;
70547;SDS011;58099;43.406;3.698;2023-09-08T10:34:33;9.20;;;5.47;;
70547;SDS011;58099;43.406;3.698;2023-09-08T10:37:00;8.20;;;4.85;;
70547;SDS011;58099;43.406;3.698;2023-09-08T10:39:32;9.07;;;5.30;;
70547;SDS011;58099;43.406;3.698;2023-09-08T10:47:13;8.95;;;4.50;;
70547;SDS011;58099;43.406;3.698;2023-09-08T10:49:40;8.70;;;4.75;;
70547;SDS011;58099;43.406;3.698;2023-09-08T10:52:09;13.07;;;5.00;;
70547;SDS011;58099;43.406;3.698;2023-09-08T10:54:40;7.82;;;4.88;;
70547;SDS011;58099;43.406;3.698;2023-09-08T10:57:06;7.50;;;4.47;;
70547;SDS011;58099;43.406;3.698;2023-09-08T10:59:38;7.43;;;3.90;;
70547;SDS011;58099;43.406;3.698;2023-09-08T11:02:05;8.43;;;4.85;;
70547;SDS011;58099;43.406;3.698;2023-09-08T11:04:30;7.47;;;4.57;;
70547;SDS011;58099;43.406;3.698;2023-09-08T11:06:58;7.65;;;4.18;;
70547;SDS011;58099;43.406;3.698;2023-09-08T11:09:25;7.65;;;4.57;;
70547;SDS011;58099;43.406;3.698;2023-09-08T11:11:51;7.13;;;4.60;;
70547;SDS011;58099;43.406;3.698;2023-09-08T11:14:16;6.97;;;4.53;;
70547;SDS011;58099;43.406;3.698;2023-09-08T11:16:42;8.07;;;4.53;;
70547;SDS011;58099;43.406;3.698;2023-09-08T11:19:08;5.88;;;4.40;;
70547;SDS011;58099;43.406;3.698;2023-09-08T11:21:35;6.85;;;3.95;;
70547;SDS011;58099;43.406;3.698;2023-09-08T11:24:02;10.73;;;4.40;;
70547;SDS011;58099;43.406;3.698;2023-09-08T11:26:33;6.88;;;4.43;;
70547;SDS011;58099;43.406;3.698;2023-09-08T11:28:59;5.22;;;3.42;;
70547;SDS011;58099;43.406;3.698;2023-09-08T11:31:26;7.75;;;4.35;;
70547;SDS011;58099;43.406;3.698;2023-09-08T11:33:54;5.10;;;3.40;;
70547;SDS011;58099;43.406;3.698;2023-09-08T11:36:20;6.10;;;3.90;;
70547;SDS011;58099;43.406;3.698;2023-09-08T11:38:46;6.30;;;4.43;;
70547;SDS011;58099;43.406;3.698;2023-09-08T11:41:12;6.15;;;4.28;;
70547;SDS011;58099;43.406;3.698;2023-09-08T11:43:38;7.57;;;3.92;;
70547;SDS011;58099;43.406;3.698;2023-09-08T11:46:04;6.38;;;3.90;;
70547;SDS011;58099;43.406;3.698;2023-09-08T11:48:31;8.90;;;4.93;;
70547;SDS011;58099;43.406;3.698;2023-09-08T11:50:57;5.38;;;3.65;;
70547;SDS011;58099;43.406;3.698;2023-09-08T11:53:23;5.88;;;4.15;;
70547;SDS011;58099;43.406;3.698;2023-09-08T11:55:49;7.90;;;4.03;;
70547;SDS011;58099;43.406;3.698;2023-09-08T11:58:16;8.10;;;4.40;;
70547;SDS011;58099;43.406;3.698;2023-09-08T12:00:44;6.47;;;4.05;;
70547;SDS011;58099;43.406;3.698;2023-09-08T12:03:14;7.28;;;4.35;;
70547;SDS011;58099;43.406;3.698;2023-09-08T12:05:41;6.57;;;4.57;;
70547;SDS011;58099;43.406;3.698;2023-09-08T12:08:08;8.65;;;4.93;;
70547;SDS011;58099;43.406;3.698;2023-09-08T12:10:38;9.27;;;4.40;;
70547;SDS011;58099;43.406;3.698;2023-09-08T12:13:07;6.57;;;5.32;;
70547;SDS011;58099;43.406;3.698;2023-09-08T12:15:38;7.90;;;4.80;;
70547;SDS011;58099;43.406;3.698;2023-09-08T12:18:06;9.15;;;5.65;;
70547;SDS011;58099;43.406;3.698;2023-09-08T12:20:33;8.97;;;5.67;;
70547;SDS011;58099;43.406;3.698;2023-09-08T12:23:00;8.77;;;4.80;;
70547;SDS011;58099;43.406;3.698;2023-09-08T12:25:27;6.30;;;4.65;;
70547;SDS011;58099;43.406;3.698;2023-09-08T12:27:53;8.63;;;4.93;;
70547;SDS011;58099;43.406;3.698;2023-09-08T12:30:20;7.00;;;5.22;;
70547;SDS011;58099;43.406;3.698;2023-09-08T12:32:49;7.53;;;5.30;;
70547;SDS011;58099;43.406;3.698;2023-09-08T12:35:19;9.80;;;4.80;;
70547;SDS011;58099;43.406;3.698;2023-09-08T12:37:47;9.90;;;4.85;;
70547;SDS011;58099;43.406;3.698;2023-09-08T12:40:18;8.77;;;5.28;;
70547;SDS011;58099;43.406;3.698;2023-09-08T12:42:43;10.13;;;4.90;;
70547;SDS011;58099;43.406;3.698;2023-09-08T12:45:09;8.30;;;5.25;;
70547;SDS011;58099;43.406;3.698;2023-09-08T12:47:35;9.20;;;5.13;;
70547;SDS011;58099;43.406;3.698;2023-09-08T12:50:01;7.55;;;5.43;;
70547;SDS011;58099;43.406;3.698;2023-09-08T12:52:30;9.23;;;4.87;;
70547;SDS011;58099;43.406;3.698;2023-09-08T12:54:57;7.80;;;5.28;;
70547;SDS011;58099;43.406;3.698;2023-09-08T12:57:22;6.30;;;4.65;;
70547;SDS011;58099;43.406;3.698;2023-09-08T12:59:48;7.10;;;4.80;;
70547;SDS011;58099;43.406;3.698;2023-09-08T13:02:16;8.32;;;4.70;;
70547;SDS011;58099;43.406;3.698;2023-09-08T13:04:42;5.60;;;3.63;;
70547;SDS011;58099;43.406;3.698;2023-09-08T13:07:13;6.07;;;4.30;;
70547;SDS011;58099;43.406;3.698;2023-09-08T13:09:39;6.35;;;4.70;;
70547;SDS011;58099;43.406;3.698;2023-09-08T13:12:05;5.85;;;3.47;;
70547;SDS011;58099;43.406;3.698;2023-09-08T13:14:31;7.13;;;4.10;;
70547;SDS011;58099;43.406;3.698;2023-09-08T13:16:57;6.55;;;4.25;;
70547;SDS011;58099;43.406;3.698;2023-09-08T13:19:23;8.48;;;5.35;;
70547;SDS011;58099;43.406;3.698;2023-09-08T13:21:48;6.00;;;3.80;;
70547;SDS011;58099;43.406;3.698;2023-09-08T13:24:14;7.87;;;4.93;;
70547;SDS011;58099;43.406;3.698;2023-09-08T13:26:39;7.40;;;4.20;;
70547;SDS011;58099;43.406;3.698;2023-09-08T13:29:05;6.37;;;5.20;;
70547;SDS011;58099;43.406;3.698;2023-09-08T13:31:31;7.05;;;4.93;;
70547;SDS011;58099;43.406;3.698;2023-09-08T13:33:56;6.53;;;3.97;;
70547;SDS011;58099;43.406;3.698;2023-09-08T13:36:22;8.17;;;4.63;;
70547;SDS011;58099;43.406;3.698;2023-09-08T13:38:47;6.75;;;4.80;;
70547;SDS011;58099;43.406;3.698;2023-09-08T13:41:13;7.53;;;5.30;;
70547;SDS011;58099;43.406;3.698;2023-09-08T13:43:39;8.32;;;7.43;;
70547;SDS011;58099;43.406;3.698;2023-09-08T13:46:04;8.77;;;6.80;;
70547;SDS011;58099;43.406;3.698;2023-09-08T13:48:30;6.07;;;4.47;;
70547;SDS011;58099;43.406;3.698;2023-09-08T13:51:00;8.02;;;4.97;;
70547;SDS011;58099;43.406;3.698;2023-09-08T13:53:29;11.32;;;10.18;;
70547;SDS011;58099;43.406;3.698;2023-09-08T13:55:58;7.90;;;6.18;;
70547;SDS011;58099;43.406;3.698;2023-09-08T13:58:25;10.27;;;9.30;;
70547;SDS011;58099;43.406;3.698;2023-09-08T14:00:50;7.10;;;6.40;;
70547;SDS011;58099;43.406;3.698;2023-09-08T14:03:16;10.37;;;9.30;;
70547;SDS011;58099;43.406;3.698;2023-09-08T14:05:43;13.07;;;11.77;;
70547;SDS011;58099;43.406;3.698;2023-09-08T14:08:09;8.27;;;7.05;;
70547;SDS011;58099;43.406;3.698;2023-09-08T14:10:35;7.70;;;5.20;;
70547;SDS011;58099;43.406;3.698;2023-09-08T14:13:01;5.65;;;4.07;;
70547;SDS011;58099;43.406;3.698;2023-09-08T14:15:26;6.55;;;5.55;;
70547;SDS011;58099;43.406;3.698;2023-09-08T14:17:52;8.67;;;7.43;;
70547;SDS011;58099;43.406;3.698;2023-09-08T14:20:18;8.80;;;6.43;;
70547;SDS011;58099;43.406;3.698;2023-09-08T14:22:44;8.10;;;7.03;;
70547;SDS011;58099;43.406;3.698;2023-09-08T14:25:10;9.82;;;8.82;;
70547;SDS011;58099;43.406;3.698;2023-09-08T14:27:36;9.18;;;8.23;;
70547;SDS011;58099;43.406;3.698;2023-09-08T14:30:02;10.73;;;9.70;;
70547;SDS011;58099;43.406;3.698;2023-09-08T14:32:29;7.95;;;7.07;;
70547;SDS011;58099;43.406;3.698;2023-09-08T14:34:56;7.10;;;5.88;;
70547;SDS011;58099;43.406;3.698;2023-09-08T14:37:21;7.73;;;6.13;;
70547;SDS011;58099;43.406;3.698;2023-09-08T14:39:47;6.05;;;3.92;;
70547;SDS011;58099;43.406;3.698;2023-09-08T14:42:13;5.53;;;3.80;;
70547;SDS011;58099;43.406;3.698;2023-09-08T14:44:40;6.60;;;4.50;;
70547;SDS011;58099;43.406;3.698;2023-09-08T14:47:06;7.80;;;5.60;;
70547;SDS011;58099;43.406;3.698;2023-09-08T14:49:32;9.13;;;6.80;;
70547;SDS011;58099;43.406;3.698;2023-09-08T14:51:57;7.47;;;6.20;;
70547;SDS011;58099;43.406;3.698;2023-09-08T14:54:23;9.20;;;8.30;;
70547;SDS011;58099;43.406;3.698;2023-09-08T14:56:50;8.95;;;6.80;;
70547;SDS011;58099;43.406;3.698;2023-09-08T14:59:16;9.47;;;7.03;;
70547;SDS011;58099;43.406;3.698;2023-09-08T15:01:42;10.20;;;7.50;;
70547;SDS011;58099;43.406;3.698;2023-09-08T15:04:09;8.30;;;7.30;;
70547;SDS011;58099;43.406;3.698;2023-09-08T15:06:35;10.57;;;8.15;;
70547;SDS011;58099;43.406;3.698;2023-09-08T15:09:01;10.40;;;7.35;;
70547;SDS011;58099;43.406;3.698;2023-09-08T15:11:27;8.23;;;6.53;;
70547;SDS011;58099;43.406;3.698;2023-09-08T15:13:53;8.27;;;5.70;;
70547;SDS011;58099;43.406;3.698;2023-09-08T15:16:19;9.05;;;6.50;;
70547;SDS011;58099;43.406;3.698;2023-09-08T15:18:45;8.17;;;6.97;;
70547;SDS011;58099;43.406;3.698;2023-09-08T15:21:12;9.65;;;7.47;;
70547;SDS011;58099;43.406;3.698;2023-09-08T15:23:38;10.77;;;7.90;;
70547;SDS011;58099;43.406;3.698;2023-09-08T15:26:04;8.87;;;7.53;;
70547;SDS011;58099;43.406;3.698;2023-09-08T15:28:29;9.95;;;7.55;;
70547;SDS011;58099;43.406;3.698;2023-09-08T15:30:55;9.07;;;7.30;;
70547;SDS011;58099;43.406;3.698;2023-09-08T15:33:21;9.45;;;7.55;;
70547;SDS011;58099;43.406;3.698;2023-09-08T15:35:52;8.57;;;7.63;;
70547;SDS011;58099;43.406;3.698;2023-09-08T15:38:19;7.80;;;6.43;;
70547;SDS011;58099;43.406;3.698;2023-09-08T15:43:35;7.53;;;6.00;;
70547;SDS011;58099;43.406;3.698;2023-09-08T15:46:01;8.43;;;6.55;;
70547;SDS011;58099;43.406;3.698;2023-09-08T15:48:27;7.88;;;5.45;;
70547;SDS011;58099;43.406;3.698;2023-09-08T15:50:53;7.63;;;5.93;;
70547;SDS011;58099;43.406;3.698;2023-09-08T15:53:18;7.43;;;5.35;;
70547;SDS011;58099;43.406;3.698;2023-09-08T15:55:44;6.97;;;5.30;;
70547;SDS011;58099;43.406;3.698;2023-09-08T15:58:10;7.30;;;6.00;;
70547;SDS011;58099;43.406;3.698;2023-09-08T16:00:35;9.10;;;6.70;;
70547;SDS011;58099;43.406;3.698;2023-09-08T16:03:01;7.33;;;5.40;;
70547;SDS011;58099;43.406;3.698;2023-09-08T16:05:27;7.90;;;6.15;;
70547;SDS011;58099;43.406;3.698;2023-09-08T16:07:52;8.13;;;6.53;;
70547;SDS011;58099;43.406;3.698;2023-09-08T16:10:18;9.07;;;7.47;;
70547;SDS011;58099;43.406;3.698;2023-09-08T16:12:46;8.68;;;6.85;;
70547;SDS011;58099;43.406;3.698;2023-09-08T16:15:12;8.73;;;6.77;;
70547;SDS011;58099;43.406;3.698;2023-09-08T16:17:37;10.43;;;7.88;;
70547;SDS011;58099;43.406;3.698;2023-09-08T16:20:03;10.53;;;9.10;;
70547;SDS011;58099;43.406;3.698;2023-09-08T16:22:30;12.52;;;9.43;;
70547;SDS011;58099;43.406;3.698;2023-09-08T16:24:55;10.20;;;8.32;;
70547;SDS011;58099;43.406;3.698;2023-09-08T16:27:21;9.43;;;6.93;;
70547;SDS011;58099;43.406;3.698;2023-09-08T16:29:47;11.32;;;8.80;;
70547;SDS011;58099;43.406;3.698;2023-09-08T16:32:13;9.37;;;8.17;;
70547;SDS011;58099;43.406;3.698;2023-09-08T16:34:38;10.20;;;6.43;;
70547;SDS011;58099;43.406;3.698;2023-09-08T16:37:04;8.82;;;6.00;;
70547;SDS011;58099;43.406;3.698;2023-09-08T16:39:30;7.05;;;5.88;;
70547;SDS011;58099;43.406;3.698;2023-09-08T16:41:56;8.55;;;6.00;;
70547;SDS011;58099;43.406;3.698;2023-09-08T16:44:22;8.17;;;6.30;;
70547;SDS011;58099;43.406;3.698;2023-09-08T16:46:48;9.95;;;7.38;;
70547;SDS011;58099;43.406;3.698;2023-09-08T16:49:14;9.43;;;6.10;;
70547;SDS011;58099;43.406;3.698;2023-09-08T16:51:40;9.27;;;6.32;;
70547;SDS011;58099;43.406;3.698;2023-09-08T16:54:06;9.75;;;7.25;;
70547;SDS011;58099;43.406;3.698;2023-09-08T16:56:32;8.37;;;6.37;;
70547;SDS011;58099;43.406;3.698;2023-09-08T16:58:58;8.82;;;7.18;;
70547;SDS011;58099;43.406;3.698;2023-09-08T17:01:24;10.20;;;6.93;;
70547;SDS011;58099;43.406;3.698;2023-09-08T17:03:50;9.03;;;7.90;;
70547;SDS011;58099;43.406;3.698;2023-09-08T17:06:16;10.70;;;9.25;;
70547;SDS011;58099;43.406;3.698;2023-09-08T17:08:42;11.15;;;8.00;;
70547;SDS011;58099;43.406;3.698;2023-09-08T17:11:07;9.80;;;8.80;;
70547;SDS011;58099;43.406;3.698;2023-09-08T17:13:35;9.05;;;7.85;;
70547;SDS011;58099;43.406;3.698;2023-09-08T17:16:01;9.38;;;8.38;;
70547;SDS011;58099;43.406;3.698;2023-09-08T17:18:27;9.73;;;8.00;;
70547;SDS011;58099;43.406;3.698;2023-09-08T17:20:53;9.57;;;6.95;;
70547;SDS011;58099;43.406;3.698;2023-09-08T17:23:21;10.20;;;7.68;;
70547;SDS011;58099;43.406;3.698;2023-09-08T17:25:49;13.50;;;7.60;;
70547;SDS011;58099;43.406;3.698;2023-09-08T17:28:15;9.35;;;6.68;;
70547;SDS011;58099;43.406;3.698;2023-09-08T17:30:41;9.95;;;7.20;;
70547;SDS011;58099;43.406;3.698;2023-09-08T17:33:07;8.97;;;7.50;;
70547;SDS011;58099;43.406;3.698;2023-09-08T17:35:36;10.82;;;8.43;;
70547;SDS011;58099;43.406;3.698;2023-09-08T17:38:02;10.23;;;9.10;;
70547;SDS011;58099;43.406;3.698;2023-09-08T17:40:28;9.43;;;8.02;;
70547;SDS011;58099;43.406;3.698;2023-09-08T17:42:54;8.85;;;7.95;;
70547;SDS011;58099;43.406;3.698;2023-09-08T17:45:20;10.52;;;8.25;;
70547;SDS011;58099;43.406;3.698;2023-09-08T17:47:46;10.80;;;7.60;;
70547;SDS011;58099;43.406;3.698;2023-09-08T17:50:12;10.85;;;7.35;;
70547;SDS011;58099;43.406;3.698;2023-09-08T17:52:38;10.37;;;7.37;;
70547;SDS011;58099;43.406;3.698;2023-09-08T17:55:05;10.50;;;7.00;;
70547;SDS011;58099;43.406;3.698;2023-09-08T17:57:34;10.65;;;7.00;;
70547;SDS011;58099;43.406;3.698;2023-09-08T18:00:00;9.15;;;6.68;;
70547;SDS011;58099;43.406;3.698;2023-09-08T18:02:28;9.57;;;7.28;;
70547;SDS011;58099;43.406;3.698;2023-09-08T18:04:54;10.87;;;6.60;;
70547;SDS011;58099;43.406;3.698;2023-09-08T18:07:19;10.02;;;6.60;;
70547;SDS011;58099;43.406;3.698;2023-09-08T18:09:45;9.53;;;6.77;;
70547;SDS011;58099;43.406;3.698;2023-09-08T18:12:11;11.40;;;7.30;;
70547;SDS011;58099;43.406;3.698;2023-09-08T18:14:36;9.90;;;7.72;;
70547;SDS011;58099;43.406;3.698;2023-09-08T18:17:02;10.87;;;7.20;;
70547;SDS011;58099;43.406;3.698;2023-09-08T18:19:28;11.02;;;7.07;;
70547;SDS011;58099;43.406;3.698;2023-09-08T18:21:54;9.45;;;7.35;;
70547;SDS011;58099;43.406;3.698;2023-09-08T18:24:21;9.33;;;6.83;;
70547;SDS011;58099;43.406;3.698;2023-09-08T18:26:46;11.25;;;7.05;;
70547;SDS011;58099;43.406;3.698;2023-09-08T18:29:12;10.37;;;6.90;;
70547;SDS011;58099;43.406;3.698;2023-09-08T18:31:38;12.63;;;7.93;;
70547;SDS011;58099;43.406;3.698;2023-09-08T18:34:05;10.05;;;7.60;;
70547;SDS011;58099;43.406;3.698;2023-09-08T18:36:30;11.47;;;7.80;;
70547;SDS011;58099;43.406;3.698;2023-09-08T18:38:56;12.05;;;8.30;;
70547;SDS011;58099;43.406;3.698;2023-09-08T18:41:22;11.83;;;8.07;;
70547;SDS011;58099;43.406;3.698;2023-09-08T18:43:47;11.38;;;7.80;;
70547;SDS011;58099;43.406;3.698;2023-09-08T18:46:13;11.30;;;7.57;;
70547;SDS011;58099;43.406;3.698;2023-09-08T18:48:39;12.50;;;8.15;;
70547;SDS011;58099;43.406;3.698;2023-09-08T18:51:05;9.80;;;7.40;;
70547;SDS011;58099;43.406;3.698;2023-09-08T18:53:30;10.77;;;6.97;;
70547;SDS011;58099;43.406;3.698;2023-09-08T18:55:57;9.65;;;7.10;;
70547;SDS011;58099;43.406;3.698;2023-09-08T18:58:23;11.32;;;8.10;;
70547;SDS011;58099;43.406;3.698;2023-09-08T19:00:49;12.37;;;9.83;;
70547;SDS011;58099;43.406;3.698;2023-09-08T19:03:14;13.13;;;8.45;;
70547;SDS011;58099;43.406;3.698;2023-09-08T19:05:41;12.50;;;9.27;;
70547;SDS011;58099;43.406;3.698;2023-09-08T19:08:07;10.33;;;7.70;;
70547;SDS011;58099;43.406;3.698;2023-09-08T19:10:33;11.63;;;8.00;;
70547;SDS011;58099;43.406;3.698;2023-09-08T19:12:59;11.30;;;8.02;;
70547;SDS011;58099;43.406;3.698;2023-09-08T19:15:25;10.75;;;7.20;;
70547;SDS011;58099;43.406;3.698;2023-09-08T19:17:51;10.00;;;6.70;;
70547;SDS011;58099;43.406;3.698;2023-09-08T19:20:16;10.65;;;7.30;;
70547;SDS011;58099;43.406;3.698;2023-09-08T19:22:43;10.23;;;7.80;;
70547;SDS011;58099;43.406;3.698;2023-09-08T19:25:10;11.55;;;7.75;;
70547;SDS011;58099;43.406;3.698;2023-09-08T19:27:36;10.98;;;7.55;;
70547;SDS011;58099;43.406;3.698;2023-09-08T19:30:02;10.60;;;7.80;;
70547;SDS011;58099;43.406;3.698;2023-09-08T19:32:31;11.45;;;7.95;;
70547;SDS011;58099;43.406;3.698;2023-09-08T19:34:58;8.77;;;7.18;;
70547;SDS011;58099;43.406;3.698;2023-09-08T19:37:23;11.33;;;7.87;;
70547;SDS011;58099;43.406;3.698;2023-09-08T19:39:49;10.60;;;7.60;;
70547;SDS011;58099;43.406;3.698;2023-09-08T19:42:15;11.63;;;6.77;;
70547;SDS011;58099;43.406;3.698;2023-09-08T19:44:43;10.48;;;7.00;;
70547;SDS011;58099;43.406;3.698;2023-09-08T19:47:09;11.98;;;7.68;;
70547;SDS011;58099;43.406;3.698;2023-09-08T19:49:35;11.13;;;7.82;;
70547;SDS011;58099;43.406;3.698;2023-09-08T19:52:03;11.63;;;7.70;;
70547;SDS011;58099;43.406;3.698;2023-09-08T19:54:30;13.32;;;7.63;;
70547;SDS011;58099;43.406;3.698;2023-09-08T19:56:55;10.40;;;7.78;;
70547;SDS011;58099;43.406;3.698;2023-09-08T19:59:21;10.63;;;8.27;;
70547;SDS011;58099;43.406;3.698;2023-09-08T20:01:47;10.93;;;8.00;;
70547;SDS011;58099;43.406;3.698;2023-09-08T20:04:13;12.00;;;7.72;;
70547;SDS011;58099;43.406;3.698;2023-09-08T20:06:39;12.50;;;8.13;;
70547;SDS011;58099;43.406;3.698;2023-09-08T20:09:10;10.73;;;7.93;;
70547;SDS011;58099;43.406;3.698;2023-09-08T20:11:40;11.13;;;8.27;;
70547;SDS011;58099;43.406;3.698;2023-09-08T20:14:07;13.02;;;8.90;;
70547;SDS011;58099;43.406;3.698;2023-09-08T20:16:33;12.07;;;8.73;;
70547;SDS011;58099;43.406;3.698;2023-09-08T20:18:59;12.18;;;9.10;;
70547;SDS011;58099;43.406;3.698;2023-09-08T20:21:25;11.80;;;9.02;;
70547;SDS011;58099;43.406;3.698;2023-09-08T20:23:52;12.48;;;8.93;;
70547;SDS011;58099;43.406;3.698;2023-09-08T20:26:18;12.00;;;9.03;;
70547;SDS011;58099;43.406;3.698;2023-09-08T20:28:47;13.15;;;8.68;;
70547;SDS011;58099;43.406;3.698;2023-09-08T20:31:16;12.05;;;8.98;;
70547;SDS011;58099;43.406;3.698;2023-09-08T20:33:42;11.85;;;9.35;;
70547;SDS011;58099;43.406;3.698;2023-09-08T20:36:08;12.80;;;9.63;;
70547;SDS011;58099;43.406;3.698;2023-09-08T20:38:34;13.05;;;9.68;;
70547;SDS011;58099;43.406;3.698;2023-09-08T20:41:00;12.18;;;9.45;;
70547;SDS011;58099;43.406;3.698;2023-09-08T20:43:26;13.25;;;9.90;;
70547;SDS011;58099;43.406;3.698;2023-09-08T20:45:52;10.67;;;8.90;;
70547;SDS011;58099;43.406;3.698;2023-09-08T20:48:24;13.75;;;9.25;;
70547;SDS011;58099;43.406;3.698;2023-09-08T20:51:03;12.35;;;9.50;;
70547;SDS011;58099;43.406;3.698;2023-09-08T20:53:34;12.45;;;8.40;;
70547;SDS011;58099;43.406;3.698;2023-09-08T20:56:01;11.98;;;8.52;;
70547;SDS011;58099;43.406;3.698;2023-09-08T20:58:27;12.50;;;8.13;;
70547;SDS011;58099;43.406;3.698;2023-09-08T21:00:53;11.35;;;8.13;;
70547;SDS011;58099;43.406;3.698;2023-09-08T21:03:20;16.83;;;9.93;;
70547;SDS011;58099;43.406;3.698;2023-09-08T21:05:46;12.13;;;8.50;;
70547;SDS011;58099;43.406;3.698;2023-09-08T21:08:13;12.50;;;8.77;;
70547;SDS011;58099;43.406;3.698;2023-09-08T21:10:39;12.07;;;8.80;;
70547;SDS011;58099;43.406;3.698;2023-09-08T21:13:06;10.90;;;8.55;;
70547;SDS011;58099;43.406;3.698;2023-09-08T21:15:32;14.52;;;9.63;;
70547;SDS011;58099;43.406;3.698;2023-09-08T21:17:58;12.67;;;9.03;;
70547;SDS011;58099;43.406;3.698;2023-09-08T21:20:23;11.73;;;9.10;;
70547;SDS011;58099;43.406;3.698;2023-09-08T21:22:49;12.70;;;9.07;;
70547;SDS011;58099;43.406;3.698;2023-09-08T21:25:15;11.82;;;8.95;;
70547;SDS011;58099;43.406;3.698;2023-09-08T21:27:41;11.23;;;8.57;;
70547;SDS011;58099;43.406;3.698;2023-09-08T21:30:07;13.73;;;9.63;;
70547;SDS011;58099;43.406;3.698;2023-09-08T21:32:33;15.45;;;9.45;;
70547;SDS011;58099;43.406;3.698;2023-09-08T21:34:59;12.30;;;9.53;;
70547;SDS011;58099;43.406;3.698;2023-09-08T21:37:24;11.80;;;9.27;;
70547;SDS011;58099;43.406;3.698;2023-09-08T21:39:50;13.43;;;8.93;;
70547;SDS011;58099;43.406;3.698;2023-09-08T21:42:16;11.93;;;8.90;;
70547;SDS011;58099;43.406;3.698;2023-09-08T21:44:42;11.83;;;9.50;;
70547;SDS011;58099;43.406;3.698;2023-09-08T21:47:07;11.57;;;9.30;;
70547;SDS011;58099;43.406;3.698;2023-09-08T21:49:33;12.37;;;10.30;;
70547;SDS011;58099;43.406;3.698;2023-09-08T21:51:59;13.35;;;9.15;;
70547;SDS011;58099;43.406;3.698;2023-09-08T21:54:24;12.87;;;10.17;;
70547;SDS011;58099;43.406;3.698;2023-09-08T21:56:51;13.20;;;9.38;;
